createdAt,value
2023-04-15T00:01:19.806Z,11.40
2023-04-15T00:03:53.901Z,11.40
2023-04-15T00:06:22.683Z,11.40
2023-04-15T00:08:51.846Z,11.50
2023-04-15T00:11:20.325Z,11.40
2023-04-15T00:13:49.632Z,11.40
2023-04-15T00:16:18.141Z,11.30
2023-04-15T00:18:47.239Z,11.30
2023-04-15T00:21:17.379Z,11.30
2023-04-15T00:23:50.121Z,11.30
2023-04-15T00:26:19.269Z,11.20
2023-04-15T00:28:49.147Z,11.20
2023-04-15T00:31:18.365Z,11.20
2023-04-15T00:33:47.162Z,11.10
2023-04-15T00:36:17.895Z,11.10
2023-04-15T00:38:46.819Z,11.10
2023-04-15T00:41:15.243Z,11.10
2023-04-15T00:43:44.610Z,11.00
2023-04-15T00:46:16.801Z,11.00
2023-04-15T00:48:45.988Z,11.00
2023-04-15T00:51:15.944Z,11.00
2023-04-15T00:53:44.727Z,11.00
2023-04-15T00:56:13.451Z,10.90
2023-04-15T00:58:43.676Z,10.90
2023-04-15T01:01:12.142Z,10.80
2023-04-15T01:03:41.472Z,10.80
2023-04-15T01:06:09.845Z,10.70
2023-04-15T01:08:39.280Z,10.70
2023-04-15T01:11:07.923Z,10.70
2023-04-15T01:13:36.921Z,10.60
2023-04-15T01:16:05.600Z,10.60
2023-04-15T01:18:34.039Z,10.60
2023-04-15T01:21:03.985Z,10.60
2023-04-15T01:23:34.149Z,10.60
2023-04-15T01:26:05.175Z,10.50
2023-04-15T01:28:34.254Z,10.50
2023-04-15T01:31:10.795Z,10.50
2023-04-15T01:33:39.485Z,10.50
2023-04-15T01:36:11.184Z,10.50
2023-04-15T01:38:39.990Z,10.50
2023-04-15T01:41:09.526Z,10.50
2023-04-15T01:43:38.228Z,10.50
2023-04-15T01:46:07.109Z,10.50
2023-04-15T01:48:35.528Z,10.40
2023-04-15T01:51:03.595Z,10.40
2023-04-15T01:53:31.677Z,10.40
2023-04-15T01:56:00.033Z,10.40
2023-04-15T01:58:29.607Z,10.40
2023-04-15T02:00:58.226Z,10.30
2023-04-15T02:03:26.551Z,10.30
2023-04-15T02:05:54.798Z,10.20
2023-04-15T02:08:23.173Z,10.20
2023-04-15T02:10:51.285Z,10.10
2023-04-15T02:13:19.941Z,10.10
2023-04-15T02:15:53.456Z,10.00
2023-04-15T02:18:21.675Z,10.00
2023-04-15T02:20:49.896Z,10.00
2023-04-15T02:23:17.997Z,10.00
2023-04-15T02:25:53.458Z,10.00
2023-04-15T02:28:22.682Z,9.90
2023-04-15T02:30:53.483Z,9.90
2023-04-15T02:33:22.965Z,9.90
2023-04-15T02:35:51.158Z,9.80
2023-04-15T02:38:20.326Z,9.80
2023-04-15T02:40:49.721Z,9.70
2023-04-15T02:43:18.634Z,9.70
2023-04-15T02:45:48.696Z,9.70
2023-04-15T02:48:20.293Z,9.70
2023-04-15T02:50:49.568Z,9.60
2023-04-15T02:53:18.419Z,9.60
2023-04-15T02:55:46.910Z,9.60
2023-04-15T02:58:15.202Z,9.50
2023-04-15T03:00:44.174Z,9.50
2023-04-15T03:03:15.321Z,9.40
2023-04-15T03:05:46.661Z,9.40
2023-04-15T03:08:15.840Z,9.30
2023-04-15T03:10:44.070Z,9.30
2023-04-15T03:13:12.384Z,9.20
2023-04-15T03:15:40.704Z,9.10
2023-04-15T03:18:09.214Z,9.10
2023-04-15T03:20:37.770Z,9.10
2023-04-15T03:23:07.720Z,9.00
2023-04-15T03:25:37.400Z,9.10
2023-04-15T03:28:06.296Z,9.10
2023-04-15T03:30:34.593Z,9.10
2023-04-15T03:33:02.862Z,9.10
2023-04-15T03:35:31.306Z,9.10
2023-04-15T03:37:59.574Z,9.10
2023-04-15T03:40:29.311Z,9.00
2023-04-15T03:42:57.511Z,9.00
2023-04-15T03:45:26.651Z,8.90
2023-04-15T03:47:54.893Z,8.90
2023-04-15T03:50:23.195Z,8.90
2023-04-15T03:52:51.413Z,8.80
2023-04-15T03:55:22.564Z,8.80
2023-04-15T03:57:52.093Z,8.80
2023-04-15T04:00:23.241Z,8.80
2023-04-15T04:02:51.500Z,8.70
2023-04-15T04:05:19.796Z,8.70
2023-04-15T04:07:47.947Z,8.70
2023-04-15T04:10:16.457Z,8.70
2023-04-15T04:12:44.870Z,8.60
2023-04-15T04:15:14.878Z,8.60
2023-04-15T04:17:45.923Z,8.50
2023-04-15T04:20:14.752Z,8.60
2023-04-15T04:22:43.775Z,8.50
2023-04-15T04:25:12.826Z,8.30
2023-04-15T04:27:41.229Z,8.50
2023-04-15T04:30:10.680Z,8.40
2023-04-15T04:32:41.044Z,8.40
2023-04-15T04:35:10.488Z,8.40
2023-04-15T04:37:38.823Z,8.30
2023-04-15T04:40:09.505Z,8.30
2023-04-15T04:42:39.897Z,8.30
2023-04-15T04:45:10.143Z,8.20
2023-04-15T04:47:44.218Z,8.20
2023-04-15T04:50:12.892Z,8.00
2023-04-15T04:52:41.277Z,8.20
2023-04-15T04:55:10.411Z,8.20
2023-04-15T04:57:39.596Z,8.20
2023-04-15T05:00:09.901Z,8.30
2023-04-15T05:02:39.700Z,8.30
2023-04-15T05:05:09.468Z,8.30
2023-04-15T05:07:37.843Z,8.30
2023-04-15T05:10:07.945Z,8.30
2023-04-15T05:12:37.424Z,8.30
2023-04-15T05:15:07.215Z,8.30
2023-04-15T05:17:35.684Z,8.30
2023-04-15T05:20:06.051Z,8.30
2023-04-15T05:22:34.317Z,8.30
2023-04-15T05:25:02.487Z,8.30
2023-04-15T05:27:30.844Z,8.30
2023-04-15T05:29:58.979Z,8.30
2023-04-15T05:32:27.346Z,8.50
2023-04-15T05:34:56.024Z,8.50
2023-04-15T05:37:25.583Z,8.60
2023-04-15T05:39:53.970Z,8.70
2023-04-15T05:42:22.362Z,8.70
2023-04-15T05:44:50.907Z,8.80
2023-04-15T05:47:19.399Z,8.80
2023-04-15T05:49:47.588Z,8.90
2023-04-15T05:52:16.668Z,8.90
2023-04-15T05:54:46.641Z,9.00
2023-04-15T05:57:14.918Z,9.00
2023-04-15T05:59:43.294Z,9.00
2023-04-15T06:02:12.109Z,9.00
2023-04-15T06:04:40.609Z,9.10
2023-04-15T06:07:08.907Z,9.10
2023-04-15T06:09:37.311Z,9.20
2023-04-15T06:12:12.388Z,9.20
2023-04-15T06:14:40.685Z,9.30
2023-04-15T06:17:09.107Z,9.30
2023-04-15T06:19:37.360Z,9.40
2023-04-15T06:22:07.231Z,9.50
2023-04-15T06:24:37.044Z,9.50
2023-04-15T06:27:06.602Z,9.60
2023-04-15T06:29:38.058Z,9.70
2023-04-15T06:32:06.959Z,9.80
2023-04-15T06:34:35.637Z,9.90
2023-04-15T06:37:05.741Z,10.00
2023-04-15T06:39:34.579Z,10.10
2023-04-15T06:42:03.378Z,10.20
2023-04-15T06:44:34.024Z,10.20
2023-04-15T06:47:02.377Z,10.30
2023-04-15T06:49:30.552Z,10.50
2023-04-15T06:51:59.140Z,10.60
2023-04-15T06:54:27.455Z,10.70
2023-04-15T06:56:55.936Z,10.80
2023-04-15T06:59:24.183Z,10.80
2023-04-15T07:01:53.750Z,10.90
2023-04-15T07:04:21.967Z,11.00
2023-04-15T07:06:50.049Z,11.10
2023-04-15T07:09:18.203Z,11.20
2023-04-15T07:11:46.549Z,11.30
2023-04-15T07:14:14.689Z,11.40
2023-04-15T07:16:43.001Z,11.50
2023-04-15T07:19:12.711Z,11.60
2023-04-15T07:21:41.999Z,11.70
2023-04-15T07:24:12.835Z,11.70
2023-04-15T07:26:41.147Z,11.70
2023-04-15T07:29:09.575Z,11.80
2023-04-15T07:31:37.878Z,11.80
2023-04-15T07:34:08.582Z,11.90
2023-04-15T07:36:38.135Z,11.90
2023-04-15T07:39:06.409Z,11.90
2023-04-15T07:41:34.838Z,12.00
2023-04-15T07:44:03.377Z,12.00
2023-04-15T07:46:31.946Z,12.00
2023-04-15T07:49:00.289Z,12.10
2023-04-15T07:51:29.764Z,12.10
2023-04-15T07:53:59.511Z,12.10
2023-04-15T07:56:27.834Z,12.20
2023-04-15T07:58:56.027Z,12.20
2023-04-15T08:01:24.486Z,12.40
2023-04-15T08:03:55.610Z,12.40
2023-04-15T08:06:24.446Z,12.40
2023-04-15T08:08:52.869Z,12.50
2023-04-15T08:11:23.080Z,12.50
2023-04-15T08:13:51.229Z,12.60
2023-04-15T08:16:22.568Z,12.60
2023-04-15T08:18:53.340Z,12.70
2023-04-15T08:21:22.728Z,12.70
2023-04-15T08:23:53.755Z,12.80
2023-04-15T08:26:23.807Z,12.90
2023-04-15T08:28:52.386Z,12.90
2023-04-15T08:31:21.982Z,13.00
2023-04-15T08:33:52.117Z,13.00
2023-04-15T08:36:21.705Z,13.00
2023-04-15T08:38:49.865Z,13.00
2023-04-15T08:41:25.335Z,13.00
2023-04-15T08:43:56.154Z,13.00
2023-04-15T08:46:24.964Z,13.10
2023-04-15T08:48:56.404Z,13.10
2023-04-15T08:51:25.682Z,13.10
2023-04-15T08:53:54.330Z,13.10
2023-04-15T08:56:27.697Z,13.00
2023-04-15T08:58:56.689Z,13.00
2023-04-15T09:01:26.000Z,13.00
2023-04-15T09:03:55.603Z,13.00
2023-04-15T09:06:25.016Z,13.10
